sensor_id;sensor_type;location;lat;lon;timestamp;pressure;altitude;pressure_sealevel;temperature;humidity
47524;BME280;33253;42.144;25.884;2022-09-09T00:04:20;100654.75;;;20.98;59.72
47524;BME280;33253;42.144;25.884;2022-09-09T00:07:00;100648.66;;;20.87;60.87
47524;BME280;33253;42.144;25.884;2022-09-09T00:09:29;100653.97;;;20.78;60.73
47524;BME280;33253;42.144;25.884;2022-09-09T00:12:11;100651.31;;;20.70;61.31
47524;BME280;33253;42.144;25.884;2022-09-09T00:14:55;100647.81;;;20.62;61.91
47524;BME280;33253;42.144;25.884;2022-09-09T00:20:01;100662.69;;;20.46;62.61
47524;BME280;33253;42.144;25.884;2022-09-09T00:22:30;100650.50;;;20.22;63.21
47524;BME280;33253;42.144;25.884;2022-09-09T00:27:50;100674.97;;;20.25;63.21
47524;BME280;33253;42.144;25.884;2022-09-09T00:30:26;100681.94;;;20.17;63.27
47524;BME280;33253;42.144;25.884;2022-09-09T00:33:00;100689.81;;;20.09;63.85
47524;BME280;33253;42.144;25.884;2022-09-09T00:35:37;100690.66;;;20.03;63.73
47524;BME280;33253;42.144;25.884;2022-09-09T00:43:40;100685.22;;;19.45;65.04
47524;BME280;33253;42.144;25.884;2022-09-09T00:49:15;100675.75;;;19.78;63.92
47524;BME280;33253;42.144;25.884;2022-09-09T00:54:33;100672.31;;;19.99;63.89
47524;BME280;33253;42.144;25.884;2022-09-09T00:57:38;100667.06;;;20.17;63.57
47524;BME280;33253;42.144;25.884;2022-09-09T01:00:22;100663.59;;;20.08;63.60
47524;BME280;33253;42.144;25.884;2022-09-09T01:02:57;100652.19;;;19.87;63.74
47524;BME280;33253;42.144;25.884;2022-09-09T01:08:51;100673.19;;;20.15;62.74
47524;BME280;33253;42.144;25.884;2022-09-09T01:11:25;100674.06;;;20.25;62.88
47524;BME280;33253;42.144;25.884;2022-09-09T01:17:01;100664.47;;;20.34;62.88
47524;BME280;33253;42.144;25.884;2022-09-09T01:22:40;100676.72;;;20.14;64.09
47524;BME280;33253;42.144;25.884;2022-09-09T01:28:05;100687.94;;;19.68;65.53
47524;BME280;33253;42.144;25.884;2022-09-09T01:30:35;100670.44;;;19.56;65.92
47524;BME280;33253;42.144;25.884;2022-09-09T01:36:05;100682.63;;;19.49;66.89
47524;BME280;33253;42.144;25.884;2022-09-09T01:38:33;100678.19;;;19.27;67.41
47524;BME280;33253;42.144;25.884;2022-09-09T01:41:00;100692.88;;;19.01;68.77
47524;BME280;33253;42.144;25.884;2022-09-09T01:43:26;100699.75;;;18.88;69.50
47524;BME280;33253;42.144;25.884;2022-09-09T01:45:54;100694.50;;;18.88;69.51
47524;BME280;33253;42.144;25.884;2022-09-09T01:48:22;100687.47;;;18.81;70.03
47524;BME280;33253;42.144;25.884;2022-09-09T01:50:48;100696.19;;;18.80;69.64
47524;BME280;33253;42.144;25.884;2022-09-09T01:53:15;100675.13;;;18.60;70.21
47524;BME280;33253;42.144;25.884;2022-09-09T02:01:23;100704.00;;;18.72;71.08
47524;BME280;33253;42.144;25.884;2022-09-09T02:03:56;100702.22;;;18.67;71.70
47524;BME280;33253;42.144;25.884;2022-09-09T02:06:28;100695.25;;;18.66;71.32
47524;BME280;33253;42.144;25.884;2022-09-09T02:08:56;100660.22;;;18.45;71.91
47524;BME280;33253;42.144;25.884;2022-09-09T02:11:24;100696.16;;;18.72;71.88
47524;BME280;33253;42.144;25.884;2022-09-09T02:13:57;100700.47;;;18.69;72.06
47524;BME280;33253;42.144;25.884;2022-09-09T02:16:44;100697.81;;;18.59;72.20
47524;BME280;33253;42.144;25.884;2022-09-09T02:19:25;100696.09;;;18.66;72.20
47524;BME280;33253;42.144;25.884;2022-09-09T02:21:55;100690.91;;;18.74;71.74
47524;BME280;33253;42.144;25.884;2022-09-09T02:24:22;100691.84;;;18.81;71.83
47524;BME280;33253;42.144;25.884;2022-09-09T02:26:50;100695.28;;;18.75;72.26
47524;BME280;33253;42.144;25.884;2022-09-09T02:29:21;100696.81;;;18.42;73.35
47524;BME280;33253;42.144;25.884;2022-09-09T02:31:49;100695.97;;;18.46;73.77
47524;BME280;33253;42.144;25.884;2022-09-09T02:34:18;100683.88;;;18.61;73.11
47524;BME280;33253;42.144;25.884;2022-09-09T02:36:45;100674.28;;;18.58;73.44
47524;BME280;33253;42.144;25.884;2022-09-09T02:39:12;100682.97;;;18.60;72.92
47524;BME280;33253;42.144;25.884;2022-09-09T02:41:40;100681.25;;;18.61;72.98
47524;BME280;33253;42.144;25.884;2022-09-09T02:44:17;100665.56;;;18.64;72.57
47524;BME280;33253;42.144;25.884;2022-09-09T02:50:03;100657.69;;;18.54;72.80
47524;BME280;33253;42.144;25.884;2022-09-09T02:55:01;100660.16;;;18.40;73.71
47524;BME280;33253;42.144;25.884;2022-09-09T02:57:30;100651.41;;;18.34;74.02
47524;BME280;33253;42.144;25.884;2022-09-09T02:59:58;100661.06;;;18.39;74.18
47524;BME280;33253;42.144;25.884;2022-09-09T03:02:24;100666.16;;;18.25;74.69
47524;BME280;33253;42.144;25.884;2022-09-09T03:04:50;100663.53;;;18.24;75.21
47524;BME280;33253;42.144;25.884;2022-09-09T03:07:20;100667.00;;;18.23;75.45
47524;BME280;33253;42.144;25.884;2022-09-09T03:09:45;100668.72;;;18.19;75.79
47524;BME280;33253;42.144;25.884;2022-09-09T03:12:11;100666.94;;;18.14;75.67
47524;BME280;33253;42.144;25.884;2022-09-09T03:14:37;100665.06;;;18.00;76.28
47524;BME280;33253;42.144;25.884;2022-09-09T03:17:04;100649.22;;;17.85;76.41
47524;BME280;33253;42.144;25.884;2022-09-09T03:19:30;100653.47;;;17.78;76.92
47524;BME280;33253;42.144;25.884;2022-09-09T03:21:55;100649.94;;;17.70;77.67
47524;BME280;33253;42.144;25.884;2022-09-09T03:24:21;100657.72;;;17.68;76.93
47524;BME280;33253;42.144;25.884;2022-09-09T03:26:48;100648.06;;;17.59;78.55
47524;BME280;33253;42.144;25.884;2022-09-09T03:29:14;100632.31;;;17.52;80.07
47524;BME280;33253;42.144;25.884;2022-09-09T03:31:40;100648.81;;;17.48;81.22
47524;BME280;33253;42.144;25.884;2022-09-09T03:34:06;100653.03;;;17.35;82.18
47524;BME280;33253;42.144;25.884;2022-09-09T03:36:32;100648.66;;;17.34;83.08
47524;BME280;33253;42.144;25.884;2022-09-09T03:38:58;100642.56;;;17.33;83.00
47524;BME280;33253;42.144;25.884;2022-09-09T03:41:24;100651.34;;;17.40;81.24
47524;BME280;33253;42.144;25.884;2022-09-09T03:43:53;100647.00;;;17.40;79.87
47524;BME280;33253;42.144;25.884;2022-09-09T03:46:23;100656.63;;;17.46;79.88
47524;BME280;33253;42.144;25.884;2022-09-09T03:48:49;100661.81;;;17.44;79.39
47524;BME280;33253;42.144;25.884;2022-09-09T03:51:15;100648.66;;;17.34;80.08
47524;BME280;33253;42.144;25.884;2022-09-09T03:53:41;100659.19;;;17.40;79.65
47524;BME280;33253;42.144;25.884;2022-09-09T03:56:07;100660.16;;;17.50;78.94
47524;BME280;33253;42.144;25.884;2022-09-09T03:58:34;100655.94;;;17.61;79.31
47524;BME280;33253;42.144;25.884;2022-09-09T04:01:11;100650.72;;;17.64;80.13
47524;BME280;33253;42.144;25.884;2022-09-09T04:03:41;100652.47;;;17.62;80.51
47524;BME280;33253;42.144;25.884;2022-09-09T04:06:14;100621.81;;;17.45;79.90
47524;BME280;33253;42.144;25.884;2022-09-09T04:08:40;100655.09;;;17.62;79.62
47524;BME280;33253;42.144;25.884;2022-09-09T04:11:07;100655.16;;;17.70;78.69
47524;BME280;33253;42.144;25.884;2022-09-09T04:13:33;100670.97;;;17.87;77.79
47524;BME280;33253;42.144;25.884;2022-09-09T04:16:00;100666.66;;;17.89;76.41
47524;BME280;33253;42.144;25.884;2022-09-09T04:18:27;100679.88;;;18.00;76.82
47524;BME280;33253;42.144;25.884;2022-09-09T04:20:53;100678.06;;;17.95;76.94
47524;BME280;33253;42.144;25.884;2022-09-09T04:23:22;100683.19;;;17.86;77.83
47524;BME280;33253;42.144;25.884;2022-09-09T04:25:51;100680.72;;;17.97;77.60
47524;BME280;33253;42.144;25.884;2022-09-09T04:28:19;100668.53;;;17.98;78.04
47524;BME280;33253;42.144;25.884;2022-09-09T04:30:45;100689.59;;;18.13;77.75
47524;BME280;33253;42.144;25.884;2022-09-09T04:33:11;100691.38;;;18.19;76.74
47524;BME280;33253;42.144;25.884;2022-09-09T04:35:38;100699.16;;;18.14;76.34
47524;BME280;33253;42.144;25.884;2022-09-09T04:38:05;100697.44;;;18.13;76.76
47524;BME280;33253;42.144;25.884;2022-09-09T04:40:33;100708.69;;;18.07;77.01
47524;BME280;33253;42.144;25.884;2022-09-09T04:42:59;100719.13;;;18.10;77.05
47524;BME280;33253;42.144;25.884;2022-09-09T04:45:25;100711.28;;;18.06;76.68
47524;BME280;33253;42.144;25.884;2022-09-09T04:47:51;100720.00;;;18.08;76.86
47524;BME280;33253;42.144;25.884;2022-09-09T04:50:17;100700.78;;;18.00;75.56
47524;BME280;33253;42.144;25.884;2022-09-09T04:52:44;100714.03;;;18.20;75.90
47524;BME280;33253;42.144;25.884;2022-09-09T04:55:09;100717.53;;;18.23;76.06
47524;BME280;33253;42.144;25.884;2022-09-09T04:57:34;100712.31;;;18.23;76.97
47524;BME280;33253;42.144;25.884;2022-09-09T05:00:00;100680.78;;;18.03;77.35
47524;BME280;33253;42.144;25.884;2022-09-09T05:02:27;100714.09;;;18.27;77.68
47524;BME280;33253;42.144;25.884;2022-09-09T05:04:52;100718.34;;;18.19;77.51
47524;BME280;33253;42.144;25.884;2022-09-09T05:07:17;100713.09;;;18.15;78.61
47524;BME280;33253;42.144;25.884;2022-09-09T05:09:44;100714.81;;;18.11;78.47
47524;BME280;33253;42.144;25.884;2022-09-09T05:12:10;100706.13;;;18.12;79.26
47524;BME280;33253;42.144;25.884;2022-09-09T05:14:36;100708.88;;;18.27;77.97
47524;BME280;33253;42.144;25.884;2022-09-09T05:17:03;100704.56;;;18.34;76.93
47524;BME280;33253;42.144;25.884;2022-09-09T05:19:28;100708.97;;;18.40;77.51
47524;BME280;33253;42.144;25.884;2022-09-09T05:21:56;100709.81;;;18.37;77.40
47524;BME280;33253;42.144;25.884;2022-09-09T05:24:22;100707.31;;;18.50;76.48
47524;BME280;33253;42.144;25.884;2022-09-09T05:26:48;100704.69;;;18.48;76.97
47524;BME280;33253;42.144;25.884;2022-09-09T05:29:14;100700.28;;;18.42;77.35
47524;BME280;33253;42.144;25.884;2022-09-09T05:31:39;100703.75;;;18.38;78.37
47524;BME280;33253;42.144;25.884;2022-09-09T05:34:06;100708.16;;;18.46;77.65
47524;BME280;33253;42.144;25.884;2022-09-09T05:36:31;100717.75;;;18.48;77.88
47524;BME280;33253;42.144;25.884;2022-09-09T05:38:57;100682.78;;;18.32;77.29
47524;BME280;33253;42.144;25.884;2022-09-09T05:41:23;100718.69;;;18.56;77.11
47524;BME280;33253;42.144;25.884;2022-09-09T05:43:48;100704.84;;;18.71;75.71
47524;BME280;33253;42.144;25.884;2022-09-09T05:46:17;100703.22;;;18.86;75.08
47524;BME280;33253;42.144;25.884;2022-09-09T05:48:44;100694.63;;;19.02;74.72
47524;BME280;33253;42.144;25.884;2022-09-09T05:51:16;100694.72;;;19.19;74.22
47524;BME280;33253;42.144;25.884;2022-09-09T05:53:42;100694.78;;;19.32;73.70
47524;BME280;33253;42.144;25.884;2022-09-09T05:56:11;100692.16;;;19.32;73.24
47524;BME280;33253;42.144;25.884;2022-09-09T05:58:39;100692.16;;;19.33;72.77
47524;BME280;33253;42.144;25.884;2022-09-09T06:01:06;100698.34;;;19.48;73.55
47524;BME280;33253;42.144;25.884;2022-09-09T06:03:35;100694.88;;;19.58;71.92
47524;BME280;33253;42.144;25.884;2022-09-09T06:06:06;100654.72;;;19.45;70.70
47524;BME280;33253;42.144;25.884;2022-09-09T06:08:33;100688.91;;;19.84;71.02
47524;BME280;33253;42.144;25.884;2022-09-09T06:11:08;100693.25;;;19.91;69.88
47524;BME280;33253;42.144;25.884;2022-09-09T06:13:34;100698.50;;;19.96;69.80
47524;BME280;33253;42.144;25.884;2022-09-09T06:16:01;100695.91;;;20.00;70.06
47524;BME280;33253;42.144;25.884;2022-09-09T06:18:27;100694.16;;;20.06;69.48
47524;BME280;33253;42.144;25.884;2022-09-09T06:21:04;100698.53;;;20.17;69.60
47524;BME280;33253;42.144;25.884;2022-09-09T06:23:30;100691.56;;;20.26;67.48
47524;BME280;33253;42.144;25.884;2022-09-09T06:26:09;100677.56;;;20.20;67.64
47524;BME280;33253;42.144;25.884;2022-09-09T06:28:36;100673.22;;;20.16;68.07
47524;BME280;33253;42.144;25.884;2022-09-09T06:31:04;100702.03;;;20.38;68.56
47524;BME280;33253;42.144;25.884;2022-09-09T06:33:32;100702.03;;;20.57;69.20
47524;BME280;33253;42.144;25.884;2022-09-09T06:35:59;100696.78;;;20.60;69.11
47524;BME280;33253;42.144;25.884;2022-09-09T06:38:25;100711.66;;;20.75;66.85
47524;BME280;33253;42.144;25.884;2022-09-09T06:40:52;100721.25;;;20.90;67.26
47524;BME280;33253;42.144;25.884;2022-09-09T06:43:19;100695.91;;;20.96;66.14
47524;BME280;33253;42.144;25.884;2022-09-09T06:45:56;100699.31;;;21.28;65.78
47524;BME280;33253;42.144;25.884;2022-09-09T06:48:21;100692.25;;;21.39;65.54
47524;BME280;33253;42.144;25.884;2022-09-09T06:50:47;100694.00;;;21.36;66.05
47524;BME280;33253;42.144;25.884;2022-09-09T06:53:18;100696.63;;;21.42;65.16
47524;BME280;33253;42.144;25.884;2022-09-09T06:55:45;100694.84;;;21.45;64.82
47524;BME280;33253;42.144;25.884;2022-09-09T06:58:10;100661.59;;;21.46;64.48
47524;BME280;33253;42.144;25.884;2022-09-09T07:00:36;100692.03;;;21.89;64.18
47524;BME280;33253;42.144;25.884;2022-09-09T07:03:04;100669.22;;;21.92;63.75
47524;BME280;33253;42.144;25.884;2022-09-09T07:05:30;100680.47;;;22.11;63.08
47524;BME280;33253;42.144;25.884;2022-09-09T07:07:55;100696.97;;;22.30;62.43
47524;BME280;33253;42.144;25.884;2022-09-09T07:10:21;100685.56;;;22.35;61.94
47524;BME280;33253;42.144;25.884;2022-09-09T07:12:52;100695.09;;;22.53;61.44
47524;BME280;33253;42.144;25.884;2022-09-09T07:15:18;100683.72;;;22.51;61.11
47524;BME280;33253;42.144;25.884;2022-09-09T07:17:44;100692.47;;;22.51;61.23
47524;BME280;33253;42.144;25.884;2022-09-09T07:20:10;100694.97;;;22.68;60.15
47524;BME280;33253;42.144;25.884;2022-09-09T07:22:36;100666.13;;;22.56;59.80
47524;BME280;33253;42.144;25.884;2022-09-09T07:25:03;100680.91;;;22.69;59.73
47524;BME280;33253;42.144;25.884;2022-09-09T07:27:28;100678.19;;;22.78;60.12
47524;BME280;33253;42.144;25.884;2022-09-09T07:29:53;100679.78;;;22.93;59.89
47524;BME280;33253;42.144;25.884;2022-09-09T07:32:19;100671.69;;;23.09;59.19
47524;BME280;33253;42.144;25.884;2022-09-09T07:34:45;100672.53;;;23.13;59.27
47524;BME280;33253;42.144;25.884;2022-09-09T07:37:12;100677.72;;;23.23;61.28
47524;BME280;33253;42.144;25.884;2022-09-09T07:39:39;100672.25;;;23.39;59.85
47524;BME280;33253;42.144;25.884;2022-09-09T07:42:05;100645.06;;;23.37;58.84
47524;BME280;33253;42.144;25.884;2022-09-09T07:44:30;100669.16;;;23.73;58.33
47524;BME280;33253;42.144;25.884;2022-09-09T07:47:00;100670.81;;;23.80;59.47
47524;BME280;33253;42.144;25.884;2022-09-09T07:49:25;100672.38;;;23.94;59.01
47524;BME280;33253;42.144;25.884;2022-09-09T07:51:51;100659.97;;;24.02;57.87
47524;BME280;33253;42.144;25.884;2022-09-09T07:54:18;100668.19;;;23.80;58.68
47524;BME280;33253;42.144;25.884;2022-09-09T07:56:46;100665.63;;;23.74;60.16
47524;BME280;33253;42.144;25.884;2022-09-09T07:59:12;100648.09;;;23.71;60.70
47524;BME280;33253;42.144;25.884;2022-09-09T08:01:46;100639.94;;;23.87;59.49
47524;BME280;33253;42.144;25.884;2022-09-09T08:04:17;100679.00;;;24.21;60.41
47524;BME280;33253;42.144;25.884;2022-09-09T08:06:48;100674.63;;;24.20;60.79
47524;BME280;33253;42.144;25.884;2022-09-09T08:09:14;100669.22;;;24.26;62.60
47524;BME280;33253;42.144;25.884;2022-09-09T08:11:41;100664.47;;;24.48;62.33
47524;BME280;33253;42.144;25.884;2022-09-09T08:14:08;100663.16;;;24.74;60.89
47524;BME280;33253;42.144;25.884;2022-09-09T08:16:36;100662.16;;;24.80;59.17
47524;BME280;33253;42.144;25.884;2022-09-09T08:19:02;100647.81;;;24.93;57.99
47524;BME280;33253;42.144;25.884;2022-09-09T08:21:30;100644.94;;;25.06;53.89
47524;BME280;33253;42.144;25.884;2022-09-09T08:23:58;100649.88;;;25.23;49.26
47524;BME280;33253;42.144;25.884;2022-09-09T08:26:26;100638.34;;;25.27;50.24
47524;BME280;33253;42.144;25.884;2022-09-09T08:28:54;100640.44;;;25.53;50.49
47524;BME280;33253;42.144;25.884;2022-09-09T08:31:27;100635.19;;;25.51;45.37
47524;BME280;33253;42.144;25.884;2022-09-09T08:33:56;100637.78;;;25.53;44.10
47524;BME280;33253;42.144;25.884;2022-09-09T08:36:26;100633.25;;;25.58;44.38
47524;BME280;33253;42.144;25.884;2022-09-09T08:38:53;100593.75;;;25.52;43.48
47524;BME280;33253;42.144;25.884;2022-09-09T08:44:10;100602.69;;;25.84;42.19
47524;BME280;33253;42.144;25.884;2022-09-09T08:52:28;100622.03;;;26.24;41.44
47524;BME280;33253;42.144;25.884;2022-09-09T08:57:52;100613.50;;;26.45;41.48
47524;BME280;33253;42.144;25.884;2022-09-09T09:00:18;100573.81;;;26.45;41.43
47524;BME280;33253;42.144;25.884;2022-09-09T09:06:08;100596.06;;;27.03;40.24
47524;BME280;33253;42.144;25.884;2022-09-09T09:11:49;100589.25;;;27.24;40.11
47524;BME280;33253;42.144;25.884;2022-09-09T09:19:25;100572.59;;;27.49;39.59
47524;BME280;33253;42.144;25.884;2022-09-09T09:27:07;100565.78;;;27.68;39.43
47524;BME280;33253;42.144;25.884;2022-09-09T09:29:36;100567.53;;;27.69;38.09
47524;BME280;33253;42.144;25.884;2022-09-09T09:32:03;100555.75;;;27.78;39.01
47524;BME280;33253;42.144;25.884;2022-09-09T09:34:29;100560.44;;;27.97;38.57
47524;BME280;33253;42.144;25.884;2022-09-09T09:36:57;100564.53;;;28.07;37.80
47524;BME280;33253;42.144;25.884;2022-09-09T09:39:25;100553.09;;;28.05;39.26
47524;BME280;33253;42.144;25.884;2022-09-09T09:41:51;100558.91;;;28.16;38.13
47524;BME280;33253;42.144;25.884;2022-09-09T09:44:34;100525.75;;;28.03;37.42
47524;BME280;33253;42.144;25.884;2022-09-09T09:47:11;100552.38;;;28.27;37.15
47524;BME280;33253;42.144;25.884;2022-09-09T09:49:37;100547.53;;;28.38;37.05
47524;BME280;33253;42.144;25.884;2022-09-09T09:52:04;100551.00;;;28.40;36.92
47524;BME280;33253;42.144;25.884;2022-09-09T09:54:33;100539.22;;;28.47;36.86
47524;BME280;33253;42.144;25.884;2022-09-09T09:57:09;100539.38;;;28.68;35.96
47524;BME280;33253;42.144;25.884;2022-09-09T09:59:37;100533.94;;;28.71;34.90
47524;BME280;33253;42.144;25.884;2022-09-09T10:02:17;100534.41;;;28.82;34.94
47524;BME280;33253;42.144;25.884;2022-09-09T10:04:44;100531.75;;;29.06;35.06
47524;BME280;33253;42.144;25.884;2022-09-09T10:07:18;100528.66;;;29.17;34.23
47524;BME280;33253;42.144;25.884;2022-09-09T10:09:44;100539.56;;;29.33;34.16
47524;BME280;33253;42.144;25.884;2022-09-09T10:18:06;100523.94;;;29.47;33.47
47524;BME280;33253;42.144;25.884;2022-09-09T10:29:06;100523.75;;;29.95;32.63
47524;BME280;33253;42.144;25.884;2022-09-09T10:46:58;100504.06;;;30.18;31.92
47524;BME280;33253;42.144;25.884;2022-09-09T10:52:38;100499.09;;;30.31;32.38
47524;BME280;33253;42.144;25.884;2022-09-09T10:57:42;100496.25;;;30.55;32.79
47524;BME280;33253;42.144;25.884;2022-09-09T11:02:41;100478.53;;;30.92;32.81
47524;BME280;33253;42.144;25.884;2022-09-09T11:08:11;100457.09;;;30.76;33.53
47524;BME280;33253;42.144;25.884;2022-09-09T11:10:51;100474.91;;;30.93;33.46
47524;BME280;33253;42.144;25.884;2022-09-09T11:13:40;100446.13;;;30.82;32.26
47524;BME280;33253;42.144;25.884;2022-09-09T11:18:57;100451.66;;;31.16;32.97
47524;BME280;33253;42.144;25.884;2022-09-09T11:21:46;100452.28;;;31.21;32.49
47524;BME280;33253;42.144;25.884;2022-09-09T11:24:18;100407.53;;;30.53;33.28
47524;BME280;33253;42.144;25.884;2022-09-09T11:26:54;100441.91;;;30.95;33.14
47524;BME280;33253;42.144;25.884;2022-09-09T11:35:21;100422.72;;;31.06;33.18
47524;BME280;33253;42.144;25.884;2022-09-09T11:42:45;100424.13;;;31.68;32.42
47524;BME280;33253;42.144;25.884;2022-09-09T11:45:26;100433.00;;;31.86;31.69
47524;BME280;33253;42.144;25.884;2022-09-09T11:48:01;100431.34;;;31.83;31.81
47524;BME280;33253;42.144;25.884;2022-09-09T11:50:35;100420.44;;;31.88;32.32
47524;BME280;33253;42.144;25.884;2022-09-09T11:53:05;100394.44;;;31.74;32.14
47524;BME280;33253;42.144;25.884;2022-09-09T11:55:34;100418.41;;;32.09;31.57
47524;BME280;33253;42.144;25.884;2022-09-09T11:58:14;100416.00;;;32.04;31.95
47524;BME280;33253;42.144;25.884;2022-09-09T12:00:48;100416.56;;;31.93;32.21
47524;BME280;33253;42.144;25.884;2022-09-09T12:08:50;100400.78;;;31.89;32.75
47524;BME280;33253;42.144;25.884;2022-09-09T12:11:26;100406.59;;;31.97;32.92
47524;BME280;33253;42.144;25.884;2022-09-09T12:13:54;100372.06;;;31.94;32.26
47524;BME280;33253;42.144;25.884;2022-09-09T12:16:34;100399.53;;;32.12;32.32
47524;BME280;33253;42.144;25.884;2022-09-09T12:19:23;100388.88;;;32.12;32.08
47524;BME280;33253;42.144;25.884;2022-09-09T12:21:58;100382.19;;;32.21;31.74
47524;BME280;33253;42.144;25.884;2022-09-09T12:27:35;100367.03;;;32.04;32.49
47524;BME280;33253;42.144;25.884;2022-09-09T12:30:14;100358.38;;;32.00;32.66
47524;BME280;33253;42.144;25.884;2022-09-09T12:32:40;100353.09;;;32.15;32.39
47524;BME280;33253;42.144;25.884;2022-09-09T12:35:19;100340.63;;;31.99;32.00
47524;BME280;33253;42.144;25.884;2022-09-09T12:40:32;100333.69;;;31.95;32.32
47524;BME280;33253;42.144;25.884;2022-09-09T12:43:01;100345.88;;;32.01;32.40
47524;BME280;33253;42.144;25.884;2022-09-09T12:45:28;100338.97;;;32.13;32.10
47524;BME280;33253;42.144;25.884;2022-09-09T12:50:33;100340.94;;;31.59;32.45
47524;BME280;33253;42.144;25.884;2022-09-09T12:53:30;100338.81;;;31.66;32.92
47524;BME280;33253;42.144;25.884;2022-09-09T12:56:02;100337.03;;;31.83;32.36
47524;BME280;33253;42.144;25.884;2022-09-09T12:58:29;100338.50;;;31.72;32.46
47524;BME280;33253;42.144;25.884;2022-09-09T13:00:59;100327.38;;;31.64;32.85
47524;BME280;33253;42.144;25.884;2022-09-09T13:03:26;100301.59;;;31.63;32.17
47524;BME280;33253;42.144;25.884;2022-09-09T13:05:53;100329.25;;;31.96;32.04
47524;BME280;33253;42.144;25.884;2022-09-09T13:08:20;100318.63;;;32.10;31.31
47524;BME280;33253;42.144;25.884;2022-09-09T13:10:52;100324.13;;;32.24;31.60
47524;BME280;33253;42.144;25.884;2022-09-09T13:13:22;100309.97;;;32.38;31.29
47524;BME280;33253;42.144;25.884;2022-09-09T13:15:54;100314.81;;;32.32;31.05
47524;BME280;33253;42.144;25.884;2022-09-09T13:18:28;100304.63;;;32.38;31.06
47524;BME280;33253;42.144;25.884;2022-09-09T13:20:54;100299.69;;;32.15;31.01
47524;BME280;33253;42.144;25.884;2022-09-09T13:23:21;100288.84;;;32.02;31.67
47524;BME280;33253;42.144;25.884;2022-09-09T13:25:58;100290.72;;;32.00;31.11
47524;BME280;33253;42.144;25.884;2022-09-09T13:28:26;100284.03;;;32.08;30.69
47524;BME280;33253;42.144;25.884;2022-09-09T13:31:03;100242.75;;;31.98;31.01
47524;BME280;33253;42.144;25.884;2022-09-09T13:33:37;100248.19;;;31.97;31.15
47524;BME280;33253;42.144;25.884;2022-09-09T13:36:10;100278.94;;;31.72;31.24
47524;BME280;33253;42.144;25.884;2022-09-09T13:38:40;100281.53;;;31.56;31.22
47524;BME280;33253;42.144;25.884;2022-09-09T13:41:22;100276.59;;;31.66;31.59
47524;BME280;33253;42.144;25.884;2022-09-09T13:43:51;100283.47;;;31.70;31.52
47524;BME280;33253;42.144;25.884;2022-09-09T13:46:39;100286.38;;;31.65;31.38
47524;BME280;33253;42.144;25.884;2022-09-09T13:51:41;100258.31;;;31.24;31.77
47524;BME280;33253;42.144;25.884;2022-09-09T13:54:11;100238.88;;;30.87;31.39
47524;BME280;33253;42.144;25.884;2022-09-09T13:56:38;100286.69;;;31.08;32.75
47524;BME280;33253;42.144;25.884;2022-09-09T13:59:06;100275.19;;;31.07;32.16
47524;BME280;33253;42.144;25.884;2022-09-09T14:01:33;100293.44;;;31.15;32.32
47524;BME280;33253;42.144;25.884;2022-09-09T14:04:00;100267.16;;;30.90;32.45
47524;BME280;33253;42.144;25.884;2022-09-09T14:06:25;100285.75;;;31.09;33.06
47524;BME280;33253;42.144;25.884;2022-09-09T14:08:51;100273.91;;;30.97;33.76
47524;BME280;33253;42.144;25.884;2022-09-09T14:11:17;100285.03;;;31.05;32.86
47524;BME280;33253;42.144;25.884;2022-09-09T14:13:43;100268.56;;;30.97;32.39
47524;BME280;33253;42.144;25.884;2022-09-09T14:16:09;100270.13;;;31.01;32.51
47524;BME280;33253;42.144;25.884;2022-09-09T14:18:36;100264.28;;;30.94;32.71
47524;BME280;33253;42.144;25.884;2022-09-09T14:21:03;100258.28;;;30.89;33.04
47524;BME280;33253;42.144;25.884;2022-09-09T14:23:28;100263.38;;;30.94;34.46
47524;BME280;33253;42.144;25.884;2022-09-09T14:25:54;100264.00;;;30.99;32.81
47524;BME280;33253;42.144;25.884;2022-09-09T14:28:20;100236.13;;;30.89;32.13
47524;BME280;33253;42.144;25.884;2022-09-09T14:30:45;100264.81;;;31.01;32.91
47524;BME280;33253;42.144;25.884;2022-09-09T14:33:13;100267.47;;;31.01;32.06
47524;BME280;33253;42.144;25.884;2022-09-09T14:35:39;100247.88;;;30.85;32.18
47524;BME280;33253;42.144;25.884;2022-09-09T14:38:06;100258.53;;;30.85;32.92
47524;BME280;33253;42.144;25.884;2022-09-09T14:40:37;100250.25;;;30.73;33.39
47524;BME280;33253;42.144;25.884;2022-09-09T14:43:04;100248.59;;;30.88;32.08
47524;BME280;33253;42.144;25.884;2022-09-09T14:45:30;100246.63;;;30.92;31.90
47524;BME280;33253;42.144;25.884;2022-09-09T14:47:55;100237.22;;;30.85;32.11
47524;BME280;33253;42.144;25.884;2022-09-09T14:50:21;100225.06;;;30.79;32.36
47524;BME280;33253;42.144;25.884;2022-09-09T14:52:47;100188.75;;;30.41;32.18
47524;BME280;33253;42.144;25.884;2022-09-09T14:55:13;100236.84;;;30.75;32.15
47524;BME280;33253;42.144;25.884;2022-09-09T14:57:40;100236.34;;;30.66;32.96
47524;BME280;33253;42.144;25.884;2022-09-09T15:00:07;100232.03;;;30.64;34.10
47524;BME280;33253;42.144;25.884;2022-09-09T15:02:34;100229.69;;;30.58;33.06
47524;BME280;33253;42.144;25.884;2022-09-09T15:04:59;100172.75;;;30.24;33.41
47524;BME280;33253;42.144;25.884;2022-09-09T15:07:25;100233.53;;;30.52;33.58
47524;BME280;33253;42.144;25.884;2022-09-09T15:09:51;100205.03;;;30.17;33.36
47524;BME280;33253;42.144;25.884;2022-09-09T15:12:17;100235.28;;;30.34;33.93
47524;BME280;33253;42.144;25.884;2022-09-09T15:14:44;100234.09;;;30.22;34.62
47524;BME280;33253;42.144;25.884;2022-09-09T15:17:10;100230.06;;;30.13;33.70